createdAt,value
2023-02-14T00:00:02.328Z,1.27
2023-02-14T00:02:36.462Z,1.25
2023-02-14T00:05:58.264Z,0.75
2023-02-14T00:08:30.950Z,0.98
2023-02-14T00:11:06.392Z,0.73
2023-02-14T00:13:39.996Z,1.00
2023-02-14T00:16:14.245Z,0.90
2023-02-14T00:19:11.773Z,0.73
2023-02-14T00:21:42.443Z,1.05
2023-02-14T00:24:18.062Z,0.70
2023-02-14T00:26:51.965Z,1.20
2023-02-14T00:29:35.100Z,1.30
2023-02-14T00:32:07.107Z,2.50
2023-02-14T00:34:38.235Z,1.05
2023-02-14T00:37:07.923Z,0.98
2023-02-14T00:39:39.050Z,1.00
2023-02-14T00:42:11.421Z,1.35
2023-02-14T00:44:44.722Z,1.20
2023-02-14T00:47:14.027Z,1.10
2023-02-14T00:49:46.222Z,1.10
2023-02-14T00:52:17.842Z,1.00
2023-02-14T00:54:51.152Z,1.45
2023-02-14T00:57:24.430Z,1.00
2023-02-14T00:59:55.057Z,1.00
2023-02-14T01:02:24.341Z,1.27
2023-02-14T01:04:55.415Z,1.13
2023-02-14T01:07:26.856Z,1.50
2023-02-14T01:09:58.609Z,0.90
2023-02-14T01:15:01.818Z,1.48
2023-02-14T01:17:33.535Z,1.00
2023-02-14T01:20:07.176Z,1.20
2023-02-14T01:22:42.604Z,1.48
2023-02-14T01:25:12.454Z,1.08
2023-02-14T01:27:42.289Z,0.88
2023-02-14T01:30:15.225Z,0.93
2023-02-14T01:32:45.663Z,1.20
2023-02-14T01:37:45.495Z,0.65
2023-02-14T01:40:21.244Z,1.77
2023-02-14T01:42:55.464Z,1.02
2023-02-14T01:45:32.469Z,1.15
2023-02-14T01:48:02.637Z,0.60
2023-02-14T01:50:41.494Z,1.00
2023-02-14T01:53:23.379Z,1.58
2023-02-14T01:56:01.855Z,1.23
2023-02-14T01:58:39.801Z,1.00
2023-02-14T02:01:12.200Z,0.95
2023-02-14T02:03:53.762Z,1.42
2023-02-14T02:06:34.434Z,1.45
2023-02-14T02:09:21.544Z,1.25
2023-02-14T02:11:52.598Z,1.05
2023-02-14T02:14:27.844Z,1.08
2023-02-14T02:17:29.394Z,1.33
2023-02-14T02:20:38.934Z,1.20
2023-02-14T02:23:29.438Z,1.10
2023-02-14T02:26:34.374Z,1.05
2023-02-14T02:29:36.849Z,0.90
2023-02-14T02:32:40.558Z,1.20
2023-02-14T02:35:37.722Z,0.77
2023-02-14T02:38:40.591Z,1.33
2023-02-14T02:41:20.200Z,0.98
2023-02-14T02:44:12.635Z,0.95
2023-02-14T02:46:49.375Z,1.25
2023-02-14T02:50:18.868Z,1.00
2023-02-14T02:53:16.118Z,1.05
2023-02-14T02:56:14.519Z,1.02
2023-02-14T02:59:07.258Z,0.82
2023-02-14T03:01:43.980Z,1.00
2023-02-14T03:04:35.994Z,0.80
2023-02-14T03:07:36.298Z,1.40
2023-02-14T03:10:21.869Z,1.23
2023-02-14T03:13:15.758Z,0.93
2023-02-14T03:16:14.291Z,1.00
2023-02-14T03:19:02.893Z,1.55
2023-02-14T03:21:52.695Z,0.80
2023-02-14T03:24:42.577Z,1.63
2023-02-14T03:27:42.059Z,1.48
2023-02-14T03:30:28.323Z,1.83
2023-02-14T03:33:11.070Z,3.67
2023-02-14T03:36:03.355Z,1.00
2023-02-14T03:38:57.600Z,1.27
2023-02-14T03:41:32.354Z,1.30
2023-02-14T03:44:12.350Z,1.92
2023-02-14T03:46:57.147Z,1.73
2023-02-14T03:49:34.430Z,1.00
2023-02-14T03:52:05.173Z,1.77
2023-02-14T03:54:38.561Z,1.40
2023-02-14T03:57:53.948Z,1.05
2023-02-14T04:00:26.635Z,2.10
2023-02-14T04:03:03.921Z,1.23
2023-02-14T04:05:38.137Z,1.13
2023-02-14T04:08:09.581Z,0.73
2023-02-14T04:10:51.164Z,1.20
2023-02-14T04:13:22.561Z,1.00
2023-02-14T04:15:54.715Z,1.10
2023-02-14T04:18:43.634Z,1.52
2023-02-14T04:21:15.707Z,0.65
2023-02-14T04:23:46.538Z,1.20
2023-02-14T04:28:54.065Z,1.30
2023-02-14T04:31:27.471Z,1.35
2023-02-14T04:34:03.719Z,1.33
2023-02-14T04:36:33.932Z,0.90
2023-02-14T04:39:09.684Z,1.30
2023-02-14T04:41:40.518Z,1.20
2023-02-14T04:44:11.661Z,1.87
2023-02-14T04:46:42.366Z,1.67
2023-02-14T04:49:14.566Z,1.38
2023-02-14T04:51:47.245Z,0.93
2023-02-14T04:54:19.928Z,1.20
2023-02-14T04:56:54.136Z,1.23
2023-02-14T04:59:25.193Z,1.13
2023-02-14T05:01:58.329Z,1.25
2023-02-14T05:04:32.282Z,1.48
2023-02-14T05:07:04.244Z,0.73
2023-02-14T05:09:35.998Z,0.95
2023-02-14T05:12:05.276Z,3.67
2023-02-14T05:14:34.296Z,9.05
2023-02-14T05:17:08.826Z,55.55
2023-02-14T05:19:41.503Z,6.93
2023-02-14T05:22:12.290Z,35.30
2023-02-14T05:24:44.324Z,42.33
2023-02-14T05:27:14.618Z,14.90
2023-02-14T05:32:15.470Z,1.15
2023-02-14T05:34:48.361Z,6.88
2023-02-14T05:37:24.416Z,5.53
2023-02-14T05:39:55.867Z,5.90
2023-02-14T05:42:29.769Z,6.38
2023-02-14T05:45:01.237Z,2.65
2023-02-14T05:47:33.911Z,3.17
2023-02-14T05:50:07.818Z,1.20
2023-02-14T05:52:42.604Z,1.40
2023-02-14T05:55:12.523Z,1.90
2023-02-14T05:57:44.028Z,2.60
2023-02-14T06:00:16.086Z,1.20
2023-02-14T06:02:46.916Z,1.30
2023-02-14T06:07:54.125Z,1.20
2023-02-14T06:10:34.482Z,2.30
2023-02-14T06:13:12.371Z,1.67
2023-02-14T06:15:44.682Z,1.70
2023-02-14T06:18:16.516Z,1.67
2023-02-14T06:20:47.051Z,0.80
2023-02-14T06:23:20.957Z,1.05
2023-02-14T06:25:53.946Z,1.27
2023-02-14T06:28:28.460Z,1.42
2023-02-14T06:31:02.456Z,1.83
2023-02-14T06:33:35.922Z,1.75
2023-02-14T06:36:07.118Z,0.82
2023-02-14T06:38:44.716Z,0.70
2023-02-14T06:41:21.079Z,1.00
2023-02-14T06:43:53.759Z,1.00
2023-02-14T06:46:29.243Z,0.95
2023-02-14T06:49:03.727Z,1.00
2023-02-14T06:51:34.263Z,1.30
2023-02-14T06:54:04.481Z,1.92
2023-02-14T06:56:36.768Z,1.27
2023-02-14T06:59:10.453Z,1.05
2023-02-14T07:01:46.586Z,1.00
2023-02-14T07:04:20.067Z,0.85
2023-02-14T07:06:54.318Z,1.13
2023-02-14T07:09:27.617Z,0.63
2023-02-14T07:12:01.221Z,0.90
2023-02-14T07:14:33.951Z,1.30
2023-02-14T07:17:04.740Z,0.80
2023-02-14T07:19:35.569Z,0.70
2023-02-14T07:22:11.333Z,1.20
2023-02-14T07:24:44.632Z,1.33
2023-02-14T07:27:19.407Z,1.10
2023-02-14T07:29:55.219Z,1.10
2023-02-14T07:32:24.923Z,0.93
2023-02-14T07:34:56.263Z,1.35
2023-02-14T07:37:28.019Z,1.08
2023-02-14T07:40:01.924Z,1.10
2023-02-14T07:42:34.604Z,1.10
2023-02-14T07:45:20.782Z,0.98
2023-02-14T07:47:56.863Z,0.93
2023-02-14T07:50:24.557Z,0.80
2023-02-14T07:52:54.446Z,0.70
2023-02-14T07:55:27.227Z,0.82
2023-02-14T07:58:00.519Z,0.90
2023-02-14T08:00:36.270Z,0.88
2023-02-14T08:03:10.174Z,0.90
2023-02-14T08:05:44.382Z,0.88
2023-02-14T08:08:23.820Z,0.70
2023-02-14T08:10:56.520Z,0.70
2023-02-14T08:13:26.742Z,1.05
2023-02-14T08:16:10.203Z,0.70
2023-02-14T08:18:51.441Z,1.02
2023-02-14T08:21:23.807Z,1.00
2023-02-14T08:24:03.553Z,0.65
2023-02-14T08:26:35.923Z,1.33
2023-02-14T08:29:05.225Z,0.77
2023-02-14T08:31:36.832Z,0.73
2023-02-14T08:34:07.208Z,1.00
2023-02-14T08:36:42.170Z,0.77
2023-02-14T08:39:12.537Z,0.55
2023-02-14T08:41:46.786Z,0.60
2023-02-14T08:44:20.688Z,0.80
2023-02-14T08:46:54.053Z,0.73
2023-02-14T08:49:25.438Z,0.73
2023-02-14T08:52:02.416Z,0.70
2023-02-14T08:54:31.410Z,0.90
2023-02-14T08:57:09.018Z,0.85
2023-02-14T08:59:41.422Z,1.00
2023-02-14T09:02:15.901Z,0.60
2023-02-14T09:04:51.046Z,0.65
2023-02-14T09:07:25.250Z,0.60
2023-02-14T09:09:54.517Z,1.17
2023-02-14T09:12:29.391Z,0.47
2023-02-14T09:14:59.623Z,1.00
2023-02-14T09:17:35.106Z,1.23
2023-02-14T09:20:09.617Z,1.10
2023-02-14T09:22:43.780Z,0.80
2023-02-14T09:25:15.557Z,1.08
2023-02-14T09:27:47.618Z,0.70
2023-02-14T09:30:20.628Z,0.60
2023-02-14T09:32:53.897Z,0.98
2023-02-14T09:35:27.815Z,0.85
2023-02-14T09:38:19.837Z,0.80
2023-02-14T09:40:53.364Z,1.10
2023-02-14T09:43:51.617Z,1.08
2023-02-14T09:46:25.224Z,0.88
2023-02-14T09:48:58.582Z,0.75
2023-02-14T09:51:34.569Z,0.93
2023-02-14T09:54:20.765Z,0.77
2023-02-14T09:57:14.344Z,1.17
2023-02-14T10:00:23.933Z,1.02
2023-02-14T10:03:25.060Z,0.60
2023-02-14T10:06:06.079Z,0.75
2023-02-14T10:11:28.670Z,0.50
2023-02-14T10:14:07.183Z,1.00
2023-02-14T10:16:54.405Z,0.93
2023-02-14T10:19:35.281Z,1.02
2023-02-14T10:22:26.699Z,1.27
2023-02-14T10:25:14.644Z,0.88
2023-02-14T10:27:52.133Z,0.80
2023-02-14T10:30:32.261Z,0.85
2023-02-14T10:33:24.113Z,0.98
2023-02-14T10:36:14.390Z,1.10
2023-02-14T10:38:54.658Z,0.70
2023-02-14T10:41:56.526Z,0.82
2023-02-14T10:44:49.176Z,0.50
2023-02-14T10:48:01.182Z,0.85
2023-02-14T10:51:03.969Z,1.15
2023-02-14T10:53:40.326Z,0.60
2023-02-14T10:56:42.449Z,0.50
2023-02-14T10:59:40.678Z,0.80
2023-02-14T11:02:20.725Z,0.43
2023-02-14T11:04:51.230Z,0.90
2023-02-14T11:07:27.621Z,0.60
2023-02-14T11:10:02.440Z,0.70
2023-02-14T11:12:38.819Z,0.47
2023-02-14T11:15:24.713Z,0.60
2023-02-14T11:18:34.258Z,0.70
2023-02-14T11:21:20.760Z,0.63
2023-02-14T11:23:55.589Z,0.70
2023-02-14T11:26:34.106Z,0.90
2023-02-14T11:29:21.528Z,0.73
2023-02-14T11:31:53.619Z,0.70
2023-02-14T11:34:34.883Z,0.70
2023-02-14T11:37:21.996Z,0.60
2023-02-14T11:39:58.058Z,0.80
2023-02-14T11:42:39.030Z,0.65
2023-02-14T11:45:31.382Z,0.88
2023-02-14T11:48:36.585Z,0.75
2023-02-14T11:51:19.431Z,0.47
2023-02-14T11:53:54.571Z,0.80
2023-02-14T11:56:43.824Z,0.68
2023-02-14T11:59:23.890Z,0.80
2023-02-14T12:01:55.652Z,0.52
2023-02-14T12:04:46.305Z,0.80
2023-02-14T12:07:18.524Z,0.95
2023-02-14T12:09:53.963Z,0.80
2023-02-14T12:12:31.556Z,1.02
2023-02-14T12:15:27.631Z,0.60
2023-02-14T12:18:14.699Z,0.75
2023-02-14T12:21:10.728Z,0.95
2023-02-14T12:24:03.377Z,0.95
2023-02-14T12:26:41.894Z,0.70
2023-02-14T12:29:40.690Z,0.93
2023-02-14T12:32:33.641Z,0.73
2023-02-14T12:35:19.835Z,0.70
2023-02-14T12:38:10.952Z,0.90
2023-02-14T12:40:47.542Z,0.73
2023-02-14T12:43:49.179Z,0.60
2023-02-14T12:46:32.207Z,0.50
2023-02-14T12:49:13.536Z,0.45
2023-02-14T12:52:05.923Z,0.70
2023-02-14T12:54:44.135Z,1.00
2023-02-14T12:57:24.186Z,0.93
2023-02-14T13:00:15.396Z,1.02
2023-02-14T13:03:18.126Z,0.60
2023-02-14T13:06:07.350Z,0.60
2023-02-14T13:08:44.651Z,0.82
2023-02-14T13:11:32.536Z,0.98
2023-02-14T13:14:09.353Z,0.70
2023-02-14T13:17:12.404Z,0.70
2023-02-14T13:20:03.865Z,0.70
2023-02-14T13:22:39.930Z,0.60
2023-02-14T13:25:35.953Z,0.75
2023-02-14T13:28:08.635Z,0.70
2023-02-14T13:30:45.976Z,0.70
2023-02-14T13:33:35.101Z,0.88
2023-02-14T13:36:12.434Z,1.13
2023-02-14T13:41:34.752Z,1.17
2023-02-14T13:44:09.253Z,0.90
2023-02-14T13:46:52.761Z,1.30
2023-02-14T13:49:33.038Z,0.60
2023-02-14T13:52:11.562Z,1.10
2023-02-14T13:54:53.104Z,1.08
2023-02-14T13:57:41.489Z,0.50
2023-02-14T14:00:20.932Z,0.93
2023-02-14T14:03:02.438Z,0.77
2023-02-14T14:05:36.119Z,0.70
2023-02-14T14:08:51.811Z,0.90
2023-02-14T14:11:24.180Z,0.40
2023-02-14T14:14:08.531Z,0.70
2023-02-14T14:16:42.431Z,0.80
2023-02-14T14:19:33.536Z,0.80
2023-02-14T14:24:39.536Z,1.05
2023-02-14T14:27:25.112Z,1.10
2023-02-14T14:30:08.562Z,0.70
2023-02-14T14:32:42.396Z,0.73
2023-02-14T14:35:20.654Z,2.03
2023-02-14T14:37:59.486Z,0.52
2023-02-14T14:40:33.696Z,1.00
2023-02-14T14:43:21.431Z,0.68
2023-02-14T14:45:55.411Z,0.80
2023-02-14T14:48:54.438Z,1.02
2023-02-14T14:51:34.186Z,0.90
2023-02-14T14:54:17.007Z,0.80
2023-02-14T14:57:04.444Z,0.85
2023-02-14T14:59:42.215Z,0.93
2023-02-14T15:02:32.953Z,1.10
2023-02-14T15:05:26.712Z,1.45
2023-02-14T15:08:02.420Z,1.52
2023-02-14T15:10:33.610Z,0.90
2023-02-14T15:13:24.107Z,1.20
2023-02-14T15:15:54.026Z,0.98
2023-02-14T15:18:27.629Z,0.95
2023-02-14T15:20:59.595Z,1.40
2023-02-14T15:23:32.672Z,1.25
2023-02-14T15:26:02.165Z,2.42
2023-02-14T15:28:37.748Z,1.50
2023-02-14T15:31:09.942Z,1.50
2023-02-14T15:33:43.706Z,2.30
2023-02-14T15:36:28.673Z,2.20
2023-02-14T15:39:02.059Z,3.40
2023-02-14T15:41:33.744Z,2.95
2023-02-14T15:44:09.171Z,7.13
2023-02-14T15:46:43.690Z,11.38
2023-02-14T15:49:30.816Z,8.15
2023-02-14T15:52:10.559Z,8.13
2023-02-14T15:54:48.154Z,6.18
2023-02-14T15:57:32.152Z,8.75
2023-02-14T16:00:03.644Z,21.50
2023-02-14T16:02:42.190Z,16.95
2023-02-14T16:05:22.194Z,14.35
2023-02-14T16:08:10.565Z,6.80
2023-02-14T16:10:44.153Z,5.50
2023-02-14T16:13:21.751Z,4.47
2023-02-14T16:16:10.442Z,5.55
2023-02-14T16:18:48.300Z,10.23
2023-02-14T16:21:32.963Z,15.82
2023-02-14T16:24:09.952Z,13.73
2023-02-14T16:26:44.466Z,10.77
2023-02-14T16:29:20.223Z,7.75
2023-02-14T16:32:17.936Z,6.30
2023-02-14T16:34:52.015Z,8.80
2023-02-14T16:37:38.808Z,8.02
2023-02-14T16:40:16.101Z,8.50
2023-02-14T16:42:47.556Z,5.97
2023-02-14T16:45:19.916Z,6.40
2023-02-14T16:47:53.211Z,7.22
2023-02-14T16:50:23.581Z,8.75
2023-02-14T16:53:00.107Z,9.13
2023-02-14T16:55:34.022Z,11.38
2023-02-14T16:58:04.768Z,10.18
2023-02-14T17:00:35.696Z,9.43
2023-02-14T17:03:08.539Z,8.77
2023-02-14T17:05:43.817Z,8.38
2023-02-14T17:08:22.639Z,10.05
2023-02-14T17:10:56.557Z,8.70
2023-02-14T17:13:30.773Z,9.00
2023-02-14T17:16:04.085Z,8.85
2023-02-14T17:18:37.972Z,9.35
2023-02-14T17:21:10.124Z,10.13
2023-02-14T17:23:44.252Z,9.90
2023-02-14T17:26:16.986Z,9.32
2023-02-14T17:28:49.616Z,10.30
2023-02-14T17:31:23.638Z,10.10
2023-02-14T17:33:54.971Z,9.70
2023-02-14T17:36:27.043Z,10.35
2023-02-14T17:39:03.409Z,9.40
2023-02-14T17:41:36.383Z,10.27
2023-02-14T17:44:13.675Z,11.45
2023-02-14T17:46:48.440Z,11.18
2023-02-14T17:49:18.730Z,9.27
2023-02-14T17:51:52.012Z,9.05
2023-02-14T17:54:31.772Z,8.32
2023-02-14T17:57:02.157Z,10.30
2023-02-14T17:59:33.445Z,10.88
2023-02-14T18:02:05.537Z,8.85
2023-02-14T18:04:40.033Z,8.20
2023-02-14T18:07:13.143Z,8.93
2023-02-14T18:09:44.474Z,10.82
2023-02-14T18:12:16.243Z,21.00
2023-02-14T18:14:53.746Z,24.67
2023-02-14T18:17:24.660Z,20.65
2023-02-14T18:19:56.421Z,21.45
2023-02-14T18:22:33.710Z,18.60
2023-02-14T18:25:04.236Z,16.98
2023-02-14T18:27:34.157Z,11.40
2023-02-14T18:30:05.630Z,12.70
2023-02-14T18:32:38.898Z,11.45
2023-02-14T18:35:13.423Z,10.02
2023-02-14T18:37:49.827Z,24.13
2023-02-14T18:40:24.923Z,21.80
2023-02-14T18:42:58.517Z,19.30
2023-02-14T18:45:32.100Z,14.35
2023-02-14T18:48:02.953Z,15.77
2023-02-14T18:53:04.017Z,15.23
2023-02-14T18:55:35.124Z,11.88
2023-02-14T19:00:39.014Z,12.80
2023-02-14T20:03:11.162Z,15.77
2023-02-14T20:05:42.293Z,18.27
2023-02-14T20:08:13.692Z,18.35
2023-02-14T20:10:49.809Z,17.10
2023-02-14T20:13:19.732Z,21.77
2023-02-14T20:15:54.566Z,21.90
2023-02-14T20:18:25.081Z,22.02
2023-02-14T20:21:08.518Z,23.45
2023-02-14T20:23:41.972Z,24.65
2023-02-14T20:26:18.393Z,23.40
2023-02-14T20:29:10.832Z,23.45
2023-02-14T20:31:51.336Z,24.95
2023-02-14T20:34:23.818Z,24.63
2023-02-14T20:36:59.348Z,22.30
2023-02-14T20:39:38.455Z,21.95
2023-02-14T20:42:11.973Z,21.27
2023-02-14T20:44:42.063Z,20.05
2023-02-14T20:47:13.933Z,21.92
2023-02-14T20:49:52.109Z,20.30
2023-02-14T20:52:23.995Z,21.80
2023-02-14T20:54:54.475Z,22.98
2023-02-14T20:57:26.627Z,21.73
2023-02-14T21:00:01.419Z,22.90
2023-02-14T21:02:30.998Z,22.10
2023-02-14T21:05:03.714Z,20.33
2023-02-14T21:07:35.153Z,20.30
2023-02-14T21:10:07.831Z,19.70
2023-02-14T21:12:41.439Z,14.93
2023-02-14T21:15:12.898Z,13.05
2023-02-14T21:17:45.262Z,13.15
2023-02-14T21:20:15.175Z,12.82
2023-02-14T21:22:46.320Z,12.55
2023-02-14T21:25:18.082Z,12.80
2023-02-14T21:27:53.529Z,11.60
2023-02-14T21:30:27.181Z,10.18
2023-02-14T21:33:03.485Z,9.30
2023-02-14T21:35:32.059Z,9.85
2023-02-14T21:38:03.941Z,7.47
2023-02-14T21:40:34.775Z,6.90
2023-02-14T21:43:05.619Z,7.80
2023-02-14T21:45:54.459Z,7.18
2023-02-14T21:51:16.841Z,5.93
2023-02-14T21:53:49.217Z,5.68
2023-02-14T21:56:23.734Z,6.05
2023-02-14T21:59:00.097Z,7.38
2023-02-14T22:01:33.047Z,8.13
2023-02-14T22:04:12.047Z,5.47
2023-02-14T22:06:43.986Z,6.00
2023-02-14T22:09:21.256Z,5.57
2023-02-14T22:11:50.863Z,6.35
2023-02-14T22:14:21.389Z,5.88
2023-02-14T22:16:53.780Z,6.07
2023-02-14T22:19:26.129Z,7.25
2023-02-14T22:22:02.493Z,5.40
2023-02-14T22:24:44.591Z,6.25
